sensor_id;sensor_type;location;lat;lon;timestamp;P1;durP1;ratioP1;P2;durP2;ratioP2
67602;SDS011;54417;47.454;18.918;2022-10-26T00:01:15;9.23;;;5.50;;
67602;SDS011;54417;47.454;18.918;2022-10-26T00:06:38;7.30;;;5.22;;
67602;SDS011;54417;47.454;18.918;2022-10-26T00:12:02;8.27;;;5.10;;
67602;SDS011;54417;47.454;18.918;2022-10-26T00:17:27;11.73;;;5.63;;
67602;SDS011;54417;47.454;18.918;2022-10-26T00:22:51;8.30;;;6.13;;
67602;SDS011;54417;47.454;18.918;2022-10-26T00:28:14;9.95;;;5.85;;
67602;SDS011;54417;47.454;18.918;2022-10-26T00:33:39;10.38;;;5.35;;
67602;SDS011;54417;47.454;18.918;2022-10-26T00:39:03;12.63;;;6.82;;
67602;SDS011;54417;47.454;18.918;2022-10-26T00:50:25;9.43;;;5.85;;
67602;SDS011;54417;47.454;18.918;2022-10-26T00:55:52;12.82;;;5.50;;
67602;SDS011;54417;47.454;18.918;2022-10-26T01:01:16;10.65;;;5.07;;
67602;SDS011;54417;47.454;18.918;2022-10-26T01:06:41;7.75;;;5.32;;
67602;SDS011;54417;47.454;18.918;2022-10-26T01:12:05;9.55;;;4.90;;
67602;SDS011;54417;47.454;18.918;2022-10-26T01:17:33;12.38;;;4.75;;
67602;SDS011;54417;47.454;18.918;2022-10-26T01:23:05;11.45;;;4.25;;
67602;SDS011;54417;47.454;18.918;2022-10-26T01:28:39;9.98;;;4.68;;
67602;SDS011;54417;47.454;18.918;2022-10-26T01:39:44;12.88;;;5.57;;
67602;SDS011;54417;47.454;18.918;2022-10-26T01:45:11;7.38;;;4.38;;
67602;SDS011;54417;47.454;18.918;2022-10-26T01:50:39;10.07;;;4.38;;
67602;SDS011;54417;47.454;18.918;2022-10-26T01:56:08;6.75;;;3.17;;
67602;SDS011;54417;47.454;18.918;2022-10-26T02:01:43;7.65;;;3.88;;
67602;SDS011;54417;47.454;18.918;2022-10-26T02:07:29;5.63;;;3.83;;
67602;SDS011;54417;47.454;18.918;2022-10-26T02:13:02;9.85;;;4.30;;
67602;SDS011;54417;47.454;18.918;2022-10-26T02:18:33;4.95;;;2.97;;
67602;SDS011;54417;47.454;18.918;2022-10-26T02:24:01;6.65;;;4.28;;
67602;SDS011;54417;47.454;18.918;2022-10-26T02:29:32;10.07;;;3.35;;
67602;SDS011;54417;47.454;18.918;2022-10-26T02:34:57;7.53;;;3.80;;
67602;SDS011;54417;47.454;18.918;2022-10-26T02:40:26;7.47;;;3.83;;
67602;SDS011;54417;47.454;18.918;2022-10-26T02:45:51;5.45;;;3.67;;
67602;SDS011;54417;47.454;18.918;2022-10-26T02:51:19;4.50;;;3.40;;
67602;SDS011;54417;47.454;18.918;2022-10-26T02:56:54;3.13;;;2.80;;
67602;SDS011;54417;47.454;18.918;2022-10-26T03:02:22;7.07;;;3.33;;
67602;SDS011;54417;47.454;18.918;2022-10-26T03:07:45;5.82;;;3.80;;
67602;SDS011;54417;47.454;18.918;2022-10-26T03:13:11;5.18;;;3.50;;
67602;SDS011;54417;47.454;18.918;2022-10-26T03:18:35;6.80;;;3.78;;
67602;SDS011;54417;47.454;18.918;2022-10-26T03:23:59;6.40;;;3.67;;
67602;SDS011;54417;47.454;18.918;2022-10-26T03:29:24;9.32;;;3.78;;
67602;SDS011;54417;47.454;18.918;2022-10-26T03:34:48;3.80;;;2.95;;
67602;SDS011;54417;47.454;18.918;2022-10-26T03:40:11;4.82;;;3.13;;
67602;SDS011;54417;47.454;18.918;2022-10-26T03:45:36;5.15;;;3.42;;
67602;SDS011;54417;47.454;18.918;2022-10-26T03:51:00;7.15;;;3.60;;
67602;SDS011;54417;47.454;18.918;2022-10-26T03:56:24;6.28;;;4.05;;
67602;SDS011;54417;47.454;18.918;2022-10-26T04:01:49;5.13;;;3.85;;
67602;SDS011;54417;47.454;18.918;2022-10-26T04:07:18;5.82;;;2.42;;
67602;SDS011;54417;47.454;18.918;2022-10-26T04:12:42;4.45;;;3.17;;
67602;SDS011;54417;47.454;18.918;2022-10-26T04:18:07;6.40;;;3.42;;
67602;SDS011;54417;47.454;18.918;2022-10-26T04:23:34;5.45;;;3.33;;
67602;SDS011;54417;47.454;18.918;2022-10-26T04:28:57;3.53;;;2.75;;
67602;SDS011;54417;47.454;18.918;2022-10-26T04:34:22;4.50;;;3.05;;
67602;SDS011;54417;47.454;18.918;2022-10-26T04:39:46;4.32;;;2.92;;
67602;SDS011;54417;47.454;18.918;2022-10-26T04:45:10;6.05;;;2.45;;
67602;SDS011;54417;47.454;18.918;2022-10-26T04:50:36;3.92;;;2.67;;
67602;SDS011;54417;47.454;18.918;2022-10-26T04:56:00;4.53;;;2.63;;
67602;SDS011;54417;47.454;18.918;2022-10-26T05:01:24;3.97;;;2.80;;
67602;SDS011;54417;47.454;18.918;2022-10-26T05:06:49;5.72;;;3.28;;
67602;SDS011;54417;47.454;18.918;2022-10-26T05:12:14;3.22;;;2.85;;
67602;SDS011;54417;47.454;18.918;2022-10-26T05:17:38;3.78;;;2.70;;
67602;SDS011;54417;47.454;18.918;2022-10-26T05:23:06;7.60;;;4.38;;
67602;SDS011;54417;47.454;18.918;2022-10-26T05:28:33;12.75;;;5.60;;
67602;SDS011;54417;47.454;18.918;2022-10-26T05:33:56;8.82;;;5.65;;
67602;SDS011;54417;47.454;18.918;2022-10-26T05:39:21;9.55;;;5.45;;
67602;SDS011;54417;47.454;18.918;2022-10-26T05:44:45;7.47;;;5.15;;
67602;SDS011;54417;47.454;18.918;2022-10-26T05:50:09;10.45;;;5.60;;
67602;SDS011;54417;47.454;18.918;2022-10-26T05:55:36;11.55;;;5.40;;
67602;SDS011;54417;47.454;18.918;2022-10-26T06:01:04;9.52;;;5.50;;
67602;SDS011;54417;47.454;18.918;2022-10-26T06:06:36;11.82;;;6.70;;
67602;SDS011;54417;47.454;18.918;2022-10-26T06:12:06;17.60;;;8.27;;
67602;SDS011;54417;47.454;18.918;2022-10-26T06:17:35;10.43;;;5.85;;
67602;SDS011;54417;47.454;18.918;2022-10-26T06:23:14;13.52;;;6.30;;
67602;SDS011;54417;47.454;18.918;2022-10-26T06:28:51;9.05;;;5.68;;
67602;SDS011;54417;47.454;18.918;2022-10-26T06:34:26;10.82;;;5.75;;
67602;SDS011;54417;47.454;18.918;2022-10-26T06:39:55;10.45;;;7.47;;
67602;SDS011;54417;47.454;18.918;2022-10-26T06:45:22;19.25;;;9.50;;
67602;SDS011;54417;47.454;18.918;2022-10-26T06:50:46;17.55;;;9.73;;
67602;SDS011;54417;47.454;18.918;2022-10-26T06:56:14;21.35;;;10.05;;
67602;SDS011;54417;47.454;18.918;2022-10-26T07:01:40;18.88;;;9.63;;
67602;SDS011;54417;47.454;18.918;2022-10-26T07:07:04;28.80;;;11.88;;
67602;SDS011;54417;47.454;18.918;2022-10-26T07:12:27;22.77;;;10.35;;
67602;SDS011;54417;47.454;18.918;2022-10-26T07:17:55;14.77;;;10.32;;
67602;SDS011;54417;47.454;18.918;2022-10-26T07:23:19;21.55;;;11.50;;
67602;SDS011;54417;47.454;18.918;2022-10-26T07:28:46;16.25;;;11.07;;
67602;SDS011;54417;47.454;18.918;2022-10-26T07:34:12;22.70;;;11.18;;
67602;SDS011;54417;47.454;18.918;2022-10-26T07:39:35;14.65;;;10.82;;
67602;SDS011;54417;47.454;18.918;2022-10-26T07:44:59;14.40;;;11.07;;
67602;SDS011;54417;47.454;18.918;2022-10-26T07:50:24;19.90;;;12.23;;
67602;SDS011;54417;47.454;18.918;2022-10-26T07:55:51;20.27;;;12.50;;
67602;SDS011;54417;47.454;18.918;2022-10-26T08:01:16;21.77;;;12.52;;
67602;SDS011;54417;47.454;18.918;2022-10-26T08:06:41;18.30;;;11.93;;
67602;SDS011;54417;47.454;18.918;2022-10-26T08:12:04;16.23;;;10.82;;
67602;SDS011;54417;47.454;18.918;2022-10-26T08:17:28;22.92;;;12.35;;
67602;SDS011;54417;47.454;18.918;2022-10-26T08:22:56;17.30;;;11.13;;
67602;SDS011;54417;47.454;18.918;2022-10-26T08:28:19;20.63;;;12.77;;
67602;SDS011;54417;47.454;18.918;2022-10-26T08:33:43;23.27;;;12.32;;
67602;SDS011;54417;47.454;18.918;2022-10-26T08:39:08;14.85;;;10.85;;
67602;SDS011;54417;47.454;18.918;2022-10-26T08:44:33;14.90;;;10.05;;
67602;SDS011;54417;47.454;18.918;2022-10-26T08:50:00;12.50;;;10.65;;
67602;SDS011;54417;47.454;18.918;2022-10-26T08:55:30;14.80;;;10.23;;
67602;SDS011;54417;47.454;18.918;2022-10-26T09:00:58;22.20;;;10.60;;
67602;SDS011;54417;47.454;18.918;2022-10-26T09:06:23;20.08;;;9.65;;
67602;SDS011;54417;47.454;18.918;2022-10-26T09:11:57;20.52;;;11.10;;
67602;SDS011;54417;47.454;18.918;2022-10-26T09:17:28;22.77;;;11.55;;
67602;SDS011;54417;47.454;18.918;2022-10-26T09:23:01;29.00;;;12.65;;
67602;SDS011;54417;47.454;18.918;2022-10-26T09:28:34;28.23;;;12.38;;
67602;SDS011;54417;47.454;18.918;2022-10-26T09:33:59;19.75;;;10.60;;
67602;SDS011;54417;47.454;18.918;2022-10-26T09:39:29;23.13;;;10.25;;
67602;SDS011;54417;47.454;18.918;2022-10-26T09:45:01;16.98;;;8.20;;
67602;SDS011;54417;47.454;18.918;2022-10-26T09:50:29;16.17;;;7.63;;
67602;SDS011;54417;47.454;18.918;2022-10-26T09:55:59;16.60;;;8.23;;
67602;SDS011;54417;47.454;18.918;2022-10-26T10:01:31;18.48;;;8.05;;
67602;SDS011;54417;47.454;18.918;2022-10-26T10:07:12;19.65;;;9.52;;
67602;SDS011;54417;47.454;18.918;2022-10-26T10:12:36;23.75;;;10.98;;
67602;SDS011;54417;47.454;18.918;2022-10-26T10:18:01;19.15;;;10.18;;
67602;SDS011;54417;47.454;18.918;2022-10-26T10:23:26;19.63;;;9.90;;
67602;SDS011;54417;47.454;18.918;2022-10-26T10:28:55;21.25;;;10.15;;
67602;SDS011;54417;47.454;18.918;2022-10-26T10:34:22;18.45;;;9.63;;
67602;SDS011;54417;47.454;18.918;2022-10-26T10:39:45;20.83;;;10.68;;
67602;SDS011;54417;47.454;18.918;2022-10-26T10:45:15;24.48;;;12.38;;
67602;SDS011;54417;47.454;18.918;2022-10-26T10:50:54;22.15;;;11.07;;
67602;SDS011;54417;47.454;18.918;2022-10-26T10:56:26;17.23;;;9.57;;
67602;SDS011;54417;47.454;18.918;2022-10-26T11:01:59;19.88;;;11.25;;
67602;SDS011;54417;47.454;18.918;2022-10-26T11:07:40;27.08;;;12.40;;
67602;SDS011;54417;47.454;18.918;2022-10-26T11:13:11;18.38;;;10.93;;
67602;SDS011;54417;47.454;18.918;2022-10-26T11:18:42;15.85;;;9.60;;
67602;SDS011;54417;47.454;18.918;2022-10-26T11:24:12;16.75;;;9.50;;
67602;SDS011;54417;47.454;18.918;2022-10-26T11:29:42;16.33;;;10.23;;
67602;SDS011;54417;47.454;18.918;2022-10-26T11:35:13;18.67;;;8.93;;
67602;SDS011;54417;47.454;18.918;2022-10-26T11:40:43;11.93;;;8.82;;
67602;SDS011;54417;47.454;18.918;2022-10-26T11:46:16;11.65;;;7.53;;
67602;SDS011;54417;47.454;18.918;2022-10-26T11:51:43;18.65;;;8.57;;
67602;SDS011;54417;47.454;18.918;2022-10-26T11:57:14;27.85;;;10.52;;
67602;SDS011;54417;47.454;18.918;2022-10-26T12:02:39;18.35;;;10.43;;
67602;SDS011;54417;47.454;18.918;2022-10-26T12:08:10;17.25;;;8.68;;
67602;SDS011;54417;47.454;18.918;2022-10-26T12:13:39;21.83;;;8.30;;
67602;SDS011;54417;47.454;18.918;2022-10-26T12:19:11;16.08;;;8.57;;
67602;SDS011;54417;47.454;18.918;2022-10-26T12:24:42;11.50;;;5.75;;
67602;SDS011;54417;47.454;18.918;2022-10-26T12:35:49;9.05;;;5.90;;
67602;SDS011;54417;47.454;18.918;2022-10-26T12:41:17;10.07;;;5.78;;
67602;SDS011;54417;47.454;18.918;2022-10-26T12:46:43;7.57;;;5.60;;
67602;SDS011;54417;47.454;18.918;2022-10-26T12:52:17;9.80;;;6.20;;
67602;SDS011;54417;47.454;18.918;2022-10-26T12:57:46;11.13;;;5.22;;
67602;SDS011;54417;47.454;18.918;2022-10-26T13:03:24;10.85;;;5.40;;
67602;SDS011;54417;47.454;18.918;2022-10-26T13:08:56;9.38;;;6.03;;
67602;SDS011;54417;47.454;18.918;2022-10-26T13:14:24;10.05;;;5.25;;
67602;SDS011;54417;47.454;18.918;2022-10-26T13:19:55;6.00;;;4.80;;
67602;SDS011;54417;47.454;18.918;2022-10-26T13:25:22;12.13;;;5.35;;
67602;SDS011;54417;47.454;18.918;2022-10-26T13:30:47;9.85;;;5.50;;
67602;SDS011;54417;47.454;18.918;2022-10-26T13:36:16;8.65;;;5.50;;
67602;SDS011;54417;47.454;18.918;2022-10-26T13:41:45;8.73;;;5.28;;
67602;SDS011;54417;47.454;18.918;2022-10-26T13:47:14;9.45;;;5.45;;
67602;SDS011;54417;47.454;18.918;2022-10-26T13:52:47;7.97;;;5.10;;
67602;SDS011;54417;47.454;18.918;2022-10-26T13:58:16;9.85;;;5.68;;
67602;SDS011;54417;47.454;18.918;2022-10-26T14:03:43;12.90;;;5.05;;
67602;SDS011;54417;47.454;18.918;2022-10-26T14:09:12;8.25;;;5.88;;
67602;SDS011;54417;47.454;18.918;2022-10-26T14:14:38;11.82;;;5.90;;
67602;SDS011;54417;47.454;18.918;2022-10-26T14:20:02;12.38;;;7.78;;
67602;SDS011;54417;47.454;18.918;2022-10-26T14:25:28;11.00;;;6.88;;
67602;SDS011;54417;47.454;18.918;2022-10-26T14:31:10;10.85;;;6.20;;
67602;SDS011;54417;47.454;18.918;2022-10-26T14:36:41;9.80;;;5.85;;
67602;SDS011;54417;47.454;18.918;2022-10-26T14:42:12;12.02;;;5.78;;
67602;SDS011;54417;47.454;18.918;2022-10-26T14:47:44;7.57;;;5.07;;
67602;SDS011;54417;47.454;18.918;2022-10-26T14:53:13;8.25;;;5.88;;
67602;SDS011;54417;47.454;18.918;2022-10-26T14:58:39;12.90;;;5.93;;
67602;SDS011;54417;47.454;18.918;2022-10-26T15:04:04;7.40;;;5.32;;
67602;SDS011;54417;47.454;18.918;2022-10-26T15:09:29;11.40;;;6.20;;
67602;SDS011;54417;47.454;18.918;2022-10-26T15:14:57;10.57;;;5.13;;
67602;SDS011;54417;47.454;18.918;2022-10-26T15:20:29;14.63;;;6.22;;
67602;SDS011;54417;47.454;18.918;2022-10-26T15:25:54;10.15;;;5.03;;
67602;SDS011;54417;47.454;18.918;2022-10-26T15:31:30;9.20;;;5.38;;
67602;SDS011;54417;47.454;18.918;2022-10-26T15:36:55;12.95;;;6.75;;
67602;SDS011;54417;47.454;18.918;2022-10-26T15:42:18;5.97;;;4.28;;
67602;SDS011;54417;47.454;18.918;2022-10-26T15:47:43;13.10;;;4.95;;
67602;SDS011;54417;47.454;18.918;2022-10-26T15:53:08;7.25;;;4.22;;
67602;SDS011;54417;47.454;18.918;2022-10-26T15:58:39;10.35;;;4.63;;
67602;SDS011;54417;47.454;18.918;2022-10-26T16:04:04;8.02;;;4.05;;
67602;SDS011;54417;47.454;18.918;2022-10-26T16:09:27;8.18;;;4.75;;
67602;SDS011;54417;47.454;18.918;2022-10-26T16:14:51;9.57;;;5.03;;
67602;SDS011;54417;47.454;18.918;2022-10-26T16:20:28;10.27;;;5.00;;
67602;SDS011;54417;47.454;18.918;2022-10-26T16:25:51;9.45;;;4.47;;
67602;SDS011;54417;47.454;18.918;2022-10-26T16:31:16;8.55;;;4.80;;
67602;SDS011;54417;47.454;18.918;2022-10-26T16:36:42;8.38;;;5.25;;
67602;SDS011;54417;47.454;18.918;2022-10-26T16:42:06;5.10;;;4.05;;
67602;SDS011;54417;47.454;18.918;2022-10-26T16:47:31;12.65;;;6.18;;
67602;SDS011;54417;47.454;18.918;2022-10-26T16:52:59;13.63;;;7.18;;
67602;SDS011;54417;47.454;18.918;2022-10-26T16:58:22;19.85;;;13.25;;
67602;SDS011;54417;47.454;18.918;2022-10-26T17:03:46;20.83;;;11.52;;
67602;SDS011;54417;47.454;18.918;2022-10-26T17:09:13;25.65;;;14.45;;
67602;SDS011;54417;47.454;18.918;2022-10-26T17:14:36;18.08;;;11.45;;
67602;SDS011;54417;47.454;18.918;2022-10-26T17:20:00;29.80;;;16.40;;
67602;SDS011;54417;47.454;18.918;2022-10-26T17:25:25;15.18;;;11.80;;
67602;SDS011;54417;47.454;18.918;2022-10-26T17:30:49;23.67;;;13.32;;
67602;SDS011;54417;47.454;18.918;2022-10-26T17:36:13;15.38;;;10.10;;
67602;SDS011;54417;47.454;18.918;2022-10-26T17:41:39;16.92;;;10.45;;
67602;SDS011;54417;47.454;18.918;2022-10-26T17:47:02;30.73;;;15.82;;
67602;SDS011;54417;47.454;18.918;2022-10-26T17:52:26;15.25;;;7.35;;
67602;SDS011;54417;47.454;18.918;2022-10-26T17:57:51;37.72;;;21.42;;
67602;SDS011;54417;47.454;18.918;2022-10-26T18:03:15;38.63;;;21.70;;
67602;SDS011;54417;47.454;18.918;2022-10-26T18:08:38;26.23;;;13.85;;
67602;SDS011;54417;47.454;18.918;2022-10-26T18:14:04;41.13;;;18.00;;
67602;SDS011;54417;47.454;18.918;2022-10-26T18:19:27;35.15;;;18.75;;
67602;SDS011;54417;47.454;18.918;2022-10-26T18:24:51;24.83;;;15.90;;
67602;SDS011;54417;47.454;18.918;2022-10-26T18:30:16;20.77;;;12.45;;
67602;SDS011;54417;47.454;18.918;2022-10-26T18:35:40;20.92;;;11.35;;
67602;SDS011;54417;47.454;18.918;2022-10-26T18:41:04;14.65;;;9.02;;
67602;SDS011;54417;47.454;18.918;2022-10-26T18:46:30;13.55;;;7.90;;
67602;SDS011;54417;47.454;18.918;2022-10-26T18:52:00;15.30;;;8.07;;
67602;SDS011;54417;47.454;18.918;2022-10-26T18:57:24;13.65;;;9.57;;
67602;SDS011;54417;47.454;18.918;2022-10-26T19:02:51;15.52;;;10.70;;
67602;SDS011;54417;47.454;18.918;2022-10-26T19:08:18;18.08;;;12.57;;
67602;SDS011;54417;47.454;18.918;2022-10-26T19:13:48;19.45;;;11.15;;
67602;SDS011;54417;47.454;18.918;2022-10-26T19:19:15;16.15;;;10.80;;
67602;SDS011;54417;47.454;18.918;2022-10-26T19:24:39;16.45;;;10.10;;
67602;SDS011;54417;47.454;18.918;2022-10-26T19:30:06;18.13;;;10.15;;
67602;SDS011;54417;47.454;18.918;2022-10-26T19:35:33;15.95;;;10.85;;
67602;SDS011;54417;47.454;18.918;2022-10-26T19:41:03;18.33;;;11.48;;
67602;SDS011;54417;47.454;18.918;2022-10-26T19:46:28;21.58;;;12.77;;
67602;SDS011;54417;47.454;18.918;2022-10-26T19:51:55;17.45;;;11.68;;
67602;SDS011;54417;47.454;18.918;2022-10-26T19:57:19;17.55;;;9.40;;
67602;SDS011;54417;47.454;18.918;2022-10-26T20:02:42;19.05;;;10.55;;
67602;SDS011;54417;47.454;18.918;2022-10-26T20:08:07;18.88;;;11.18;;
67602;SDS011;54417;47.454;18.918;2022-10-26T20:13:31;24.77;;;13.45;;
67602;SDS011;54417;47.454;18.918;2022-10-26T20:18:58;29.70;;;14.80;;
67602;SDS011;54417;47.454;18.918;2022-10-26T20:24:24;21.02;;;12.00;;
67602;SDS011;54417;47.454;18.918;2022-10-26T20:29:47;19.90;;;11.05;;
67602;SDS011;54417;47.454;18.918;2022-10-26T20:35:11;14.38;;;9.32;;
67602;SDS011;54417;47.454;18.918;2022-10-26T20:40:36;13.45;;;8.57;;
67602;SDS011;54417;47.454;18.918;2022-10-26T20:46:00;23.67;;;9.70;;
67602;SDS011;54417;47.454;18.918;2022-10-26T20:51:27;19.70;;;8.73;;
67602;SDS011;54417;47.454;18.918;2022-10-26T20:57:04;17.98;;;9.02;;
67602;SDS011;54417;47.454;18.918;2022-10-26T21:02:30;20.67;;;9.00;;
67602;SDS011;54417;47.454;18.918;2022-10-26T21:07:54;13.60;;;9.15;;
67602;SDS011;54417;47.454;18.918;2022-10-26T21:13:20;16.63;;;11.93;;
67602;SDS011;54417;47.454;18.918;2022-10-26T21:18:44;22.00;;;12.00;;
67602;SDS011;54417;47.454;18.918;2022-10-26T21:24:08;16.75;;;11.48;;
67602;SDS011;54417;47.454;18.918;2022-10-26T21:29:33;20.25;;;11.05;;
67602;SDS011;54417;47.454;18.918;2022-10-26T21:34:56;22.88;;;12.57;;
67602;SDS011;54417;47.454;18.918;2022-10-26T21:40:20;17.67;;;12.90;;
67602;SDS011;54417;47.454;18.918;2022-10-26T21:45:45;21.30;;;12.70;;
67602;SDS011;54417;47.454;18.918;2022-10-26T21:51:10;22.63;;;15.13;;
67602;SDS011;54417;47.454;18.918;2022-10-26T21:56:34;19.92;;;12.75;;
67602;SDS011;54417;47.454;18.918;2022-10-26T22:01:59;18.10;;;11.80;;
67602;SDS011;54417;47.454;18.918;2022-10-26T22:07:23;20.50;;;11.05;;
67602;SDS011;54417;47.454;18.918;2022-10-26T22:12:47;16.35;;;11.40;;
67602;SDS011;54417;47.454;18.918;2022-10-26T22:18:12;22.27;;;11.80;;
67602;SDS011;54417;47.454;18.918;2022-10-26T22:23:37;18.23;;;12.75;;
67602;SDS011;54417;47.454;18.918;2022-10-26T22:29:02;12.38;;;9.15;;
67602;SDS011;54417;47.454;18.918;2022-10-26T22:34:27;14.98;;;9.73;;
67602;SDS011;54417;47.454;18.918;2022-10-26T22:39:50;14.75;;;9.10;;
67602;SDS011;54417;47.454;18.918;2022-10-26T22:45:14;15.00;;;9.02;;
67602;SDS011;54417;47.454;18.918;2022-10-26T22:50:39;16.35;;;8.82;;
67602;SDS011;54417;47.454;18.918;2022-10-26T22:56:03;15.27;;;9.88;;
67602;SDS011;54417;47.454;18.918;2022-10-26T23:01:29;22.08;;;10.00;;
67602;SDS011;54417;47.454;18.918;2022-10-26T23:06:56;15.98;;;8.48;;
67602;SDS011;54417;47.454;18.918;2022-10-26T23:12:20;18.02;;;11.60;;
67602;SDS011;54417;47.454;18.918;2022-10-26T23:17:43;18.02;;;12.13;;
67602;SDS011;54417;47.454;18.918;2022-10-26T23:23:08;20.98;;;11.68;;
67602;SDS011;54417;47.454;18.918;2022-10-26T23:28:32;19.88;;;12.63;;
67602;SDS011;54417;47.454;18.918;2022-10-26T23:33:56;16.45;;;11.18;;
67602;SDS011;54417;47.454;18.918;2022-10-26T23:39:21;15.77;;;10.15;;
67602;SDS011;54417;47.454;18.918;2022-10-26T23:44:44;13.35;;;9.73;;
67602;SDS011;54417;47.454;18.918;2022-10-26T23:50:08;14.20;;;9.60;;
67602;SDS011;54417;47.454;18.918;2022-10-26T23:55:33;11.77;;;9.10;;
